sensor_id;sensor_type;location;lat;lon;timestamp;P1;durP1;ratioP1;P2;durP2;ratioP2
57303;SDS011;43150;50.986;18.208;2023-05-10T00:01:12;9.40;;;4.90;;
57303;SDS011;43150;50.986;18.208;2023-05-10T00:03:38;9.80;;;5.20;;
57303;SDS011;43150;50.986;18.208;2023-05-10T00:06:03;7.70;;;4.70;;
57303;SDS011;43150;50.986;18.208;2023-05-10T00:08:29;5.40;;;4.00;;
57303;SDS011;43150;50.986;18.208;2023-05-10T00:10:54;7.50;;;4.70;;
57303;SDS011;43150;50.986;18.208;2023-05-10T00:13:22;9.30;;;4.60;;
57303;SDS011;43150;50.986;18.208;2023-05-10T00:15:47;7.40;;;4.20;;
57303;SDS011;43150;50.986;18.208;2023-05-10T00:18:15;10.60;;;4.90;;
57303;SDS011;43150;50.986;18.208;2023-05-10T00:20:41;6.20;;;4.30;;
57303;SDS011;43150;50.986;18.208;2023-05-10T00:23:07;7.00;;;4.20;;
57303;SDS011;43150;50.986;18.208;2023-05-10T00:25:32;5.80;;;4.10;;
57303;SDS011;43150;50.986;18.208;2023-05-10T00:27:58;8.30;;;4.20;;
57303;SDS011;43150;50.986;18.208;2023-05-10T00:30:24;8.80;;;4.90;;
57303;SDS011;43150;50.986;18.208;2023-05-10T00:32:49;8.40;;;4.50;;
57303;SDS011;43150;50.986;18.208;2023-05-10T00:35:18;7.20;;;4.10;;
57303;SDS011;43150;50.986;18.208;2023-05-10T00:37:43;5.70;;;4.10;;
57303;SDS011;43150;50.986;18.208;2023-05-10T00:40:09;7.80;;;4.10;;
57303;SDS011;43150;50.986;18.208;2023-05-10T00:42:35;7.10;;;3.70;;
57303;SDS011;43150;50.986;18.208;2023-05-10T00:45:01;8.60;;;4.50;;
57303;SDS011;43150;50.986;18.208;2023-05-10T00:47:26;9.00;;;5.80;;
57303;SDS011;43150;50.986;18.208;2023-05-10T00:49:52;10.70;;;4.50;;
57303;SDS011;43150;50.986;18.208;2023-05-10T00:52:18;9.50;;;4.70;;
57303;SDS011;43150;50.986;18.208;2023-05-10T00:54:43;6.10;;;4.20;;
57303;SDS011;43150;50.986;18.208;2023-05-10T00:57:09;7.60;;;4.50;;
57303;SDS011;43150;50.986;18.208;2023-05-10T00:59:39;7.30;;;4.10;;
57303;SDS011;43150;50.986;18.208;2023-05-10T01:02:04;5.70;;;4.10;;
57303;SDS011;43150;50.986;18.208;2023-05-10T01:04:30;10.30;;;4.30;;
57303;SDS011;43150;50.986;18.208;2023-05-10T01:06:55;9.70;;;5.00;;
57303;SDS011;43150;50.986;18.208;2023-05-10T01:09:23;7.10;;;4.50;;
57303;SDS011;43150;50.986;18.208;2023-05-10T01:15:25;8.40;;;3.60;;
57303;SDS011;43150;50.986;18.208;2023-05-10T01:17:51;7.70;;;4.40;;
57303;SDS011;43150;50.986;18.208;2023-05-10T01:20:17;7.80;;;4.80;;
57303;SDS011;43150;50.986;18.208;2023-05-10T01:35:57;7.60;;;4.30;;
57303;SDS011;43150;50.986;18.208;2023-05-10T01:41:01;6.90;;;4.30;;
57303;SDS011;43150;50.986;18.208;2023-05-10T01:43:33;6.90;;;4.20;;
57303;SDS011;43150;50.986;18.208;2023-05-10T01:46:03;8.50;;;4.80;;
57303;SDS011;43150;50.986;18.208;2023-05-10T01:48:40;6.30;;;4.00;;
57303;SDS011;43150;50.986;18.208;2023-05-10T01:51:12;7.50;;;3.80;;
57303;SDS011;43150;50.986;18.208;2023-05-10T01:53:38;10.30;;;4.30;;
57303;SDS011;43150;50.986;18.208;2023-05-10T01:56:04;4.80;;;3.50;;
57303;SDS011;43150;50.986;18.208;2023-05-10T01:58:31;9.30;;;4.50;;
57303;SDS011;43150;50.986;18.208;2023-05-10T02:01:01;8.60;;;4.00;;
57303;SDS011;43150;50.986;18.208;2023-05-10T02:03:28;7.30;;;3.90;;
57303;SDS011;43150;50.986;18.208;2023-05-10T02:05:56;9.00;;;4.50;;
57303;SDS011;43150;50.986;18.208;2023-05-10T02:08:22;7.90;;;4.50;;
57303;SDS011;43150;50.986;18.208;2023-05-10T02:10:50;6.30;;;3.70;;
57303;SDS011;43150;50.986;18.208;2023-05-10T02:13:17;7.40;;;4.10;;
57303;SDS011;43150;50.986;18.208;2023-05-10T02:15:43;6.10;;;3.50;;
57303;SDS011;43150;50.986;18.208;2023-05-10T02:18:11;9.90;;;4.20;;
57303;SDS011;43150;50.986;18.208;2023-05-10T02:20:36;5.10;;;3.40;;
57303;SDS011;43150;50.986;18.208;2023-05-10T02:23:03;6.20;;;4.00;;
57303;SDS011;43150;50.986;18.208;2023-05-10T02:25:28;9.30;;;4.40;;
57303;SDS011;43150;50.986;18.208;2023-05-10T02:27:55;9.40;;;4.30;;
57303;SDS011;43150;50.986;18.208;2023-05-10T02:30:21;8.50;;;4.50;;
57303;SDS011;43150;50.986;18.208;2023-05-10T02:32:48;6.70;;;4.30;;
57303;SDS011;43150;50.986;18.208;2023-05-10T02:35:14;8.50;;;4.30;;
57303;SDS011;43150;50.986;18.208;2023-05-10T02:37:41;6.40;;;4.30;;
57303;SDS011;43150;50.986;18.208;2023-05-10T02:40:06;7.80;;;3.90;;
57303;SDS011;43150;50.986;18.208;2023-05-10T02:42:33;9.20;;;4.60;;
57303;SDS011;43150;50.986;18.208;2023-05-10T02:45:01;9.00;;;4.90;;
57303;SDS011;43150;50.986;18.208;2023-05-10T02:47:28;6.80;;;3.60;;
57303;SDS011;43150;50.986;18.208;2023-05-10T02:49:54;9.00;;;4.30;;
57303;SDS011;43150;50.986;18.208;2023-05-10T02:52:24;9.60;;;5.00;;
57303;SDS011;43150;50.986;18.208;2023-05-10T02:54:52;7.20;;;4.40;;
57303;SDS011;43150;50.986;18.208;2023-05-10T02:57:22;7.60;;;4.00;;
57303;SDS011;43150;50.986;18.208;2023-05-10T02:59:49;8.10;;;4.30;;
57303;SDS011;43150;50.986;18.208;2023-05-10T03:02:16;7.80;;;4.40;;
57303;SDS011;43150;50.986;18.208;2023-05-10T03:04:42;4.90;;;3.40;;
57303;SDS011;43150;50.986;18.208;2023-05-10T03:07:07;7.00;;;4.30;;
57303;SDS011;43150;50.986;18.208;2023-05-10T03:09:34;5.60;;;3.20;;
57303;SDS011;43150;50.986;18.208;2023-05-10T03:12:19;6.20;;;4.10;;
57303;SDS011;43150;50.986;18.208;2023-05-10T03:14:49;6.00;;;3.40;;
57303;SDS011;43150;50.986;18.208;2023-05-10T03:17:25;7.80;;;3.70;;
57303;SDS011;43150;50.986;18.208;2023-05-10T03:19:56;6.90;;;4.50;;
57303;SDS011;43150;50.986;18.208;2023-05-10T03:22:26;8.60;;;4.60;;
57303;SDS011;43150;50.986;18.208;2023-05-10T03:24:55;6.00;;;4.20;;
57303;SDS011;43150;50.986;18.208;2023-05-10T03:27:23;6.70;;;3.40;;
57303;SDS011;43150;50.986;18.208;2023-05-10T03:29:50;5.50;;;3.60;;
57303;SDS011;43150;50.986;18.208;2023-05-10T03:32:16;7.30;;;4.10;;
57303;SDS011;43150;50.986;18.208;2023-05-10T03:34:42;5.80;;;4.20;;
57303;SDS011;43150;50.986;18.208;2023-05-10T03:37:08;9.30;;;4.00;;
57303;SDS011;43150;50.986;18.208;2023-05-10T03:39:34;7.30;;;4.00;;
57303;SDS011;43150;50.986;18.208;2023-05-10T03:42:00;5.40;;;3.50;;
57303;SDS011;43150;50.986;18.208;2023-05-10T03:44:26;6.40;;;3.80;;
57303;SDS011;43150;50.986;18.208;2023-05-10T03:46:51;5.90;;;4.00;;
57303;SDS011;43150;50.986;18.208;2023-05-10T03:49:17;5.10;;;3.50;;
57303;SDS011;43150;50.986;18.208;2023-05-10T03:51:42;4.70;;;3.50;;
57303;SDS011;43150;50.986;18.208;2023-05-10T03:54:07;7.00;;;4.50;;
57303;SDS011;43150;50.986;18.208;2023-05-10T03:56:33;6.40;;;3.60;;
57303;SDS011;43150;50.986;18.208;2023-05-10T03:59:04;8.50;;;4.70;;
57303;SDS011;43150;50.986;18.208;2023-05-10T04:01:35;4.40;;;3.60;;
57303;SDS011;43150;50.986;18.208;2023-05-10T04:04:01;6.70;;;4.10;;
57303;SDS011;43150;50.986;18.208;2023-05-10T04:06:26;5.70;;;4.20;;
57303;SDS011;43150;50.986;18.208;2023-05-10T04:08:52;8.00;;;5.00;;
57303;SDS011;43150;50.986;18.208;2023-05-10T04:11:18;11.10;;;5.00;;
57303;SDS011;43150;50.986;18.208;2023-05-10T04:13:43;6.00;;;4.90;;
57303;SDS011;43150;50.986;18.208;2023-05-10T04:16:09;5.90;;;4.90;;
57303;SDS011;43150;50.986;18.208;2023-05-10T04:18:38;8.40;;;3.40;;
57303;SDS011;43150;50.986;18.208;2023-05-10T04:21:04;7.20;;;4.70;;
57303;SDS011;43150;50.986;18.208;2023-05-10T04:23:36;6.30;;;5.10;;
57303;SDS011;43150;50.986;18.208;2023-05-10T04:26:03;5.80;;;4.60;;
57303;SDS011;43150;50.986;18.208;2023-05-10T04:28:29;6.40;;;4.20;;
57303;SDS011;43150;50.986;18.208;2023-05-10T04:31:05;6.90;;;4.90;;
57303;SDS011;43150;50.986;18.208;2023-05-10T04:33:30;9.30;;;4.60;;
57303;SDS011;43150;50.986;18.208;2023-05-10T04:35:56;4.80;;;4.20;;
57303;SDS011;43150;50.986;18.208;2023-05-10T04:38:21;7.10;;;5.10;;
57303;SDS011;43150;50.986;18.208;2023-05-10T04:40:47;5.90;;;4.90;;
57303;SDS011;43150;50.986;18.208;2023-05-10T04:43:13;7.60;;;5.20;;
57303;SDS011;43150;50.986;18.208;2023-05-10T04:45:38;6.30;;;5.00;;
57303;SDS011;43150;50.986;18.208;2023-05-10T04:48:04;7.60;;;5.40;;
57303;SDS011;43150;50.986;18.208;2023-05-10T04:50:30;7.30;;;4.90;;
57303;SDS011;43150;50.986;18.208;2023-05-10T04:52:55;7.00;;;5.00;;
57303;SDS011;43150;50.986;18.208;2023-05-10T04:55:21;7.40;;;4.90;;
57303;SDS011;43150;50.986;18.208;2023-05-10T04:57:46;6.30;;;4.70;;
57303;SDS011;43150;50.986;18.208;2023-05-10T05:00:12;5.20;;;4.10;;
57303;SDS011;43150;50.986;18.208;2023-05-10T05:02:38;5.10;;;4.40;;
57303;SDS011;43150;50.986;18.208;2023-05-10T05:05:03;7.30;;;5.00;;
57303;SDS011;43150;50.986;18.208;2023-05-10T05:07:29;7.90;;;4.30;;
57303;SDS011;43150;50.986;18.208;2023-05-10T05:09:55;4.50;;;4.00;;
57303;SDS011;43150;50.986;18.208;2023-05-10T05:12:23;4.70;;;4.20;;
57303;SDS011;43150;50.986;18.208;2023-05-10T05:14:49;5.90;;;4.60;;
57303;SDS011;43150;50.986;18.208;2023-05-10T05:17:14;6.30;;;4.50;;
57303;SDS011;43150;50.986;18.208;2023-05-10T05:19:40;6.70;;;4.50;;
57303;SDS011;43150;50.986;18.208;2023-05-10T05:22:06;4.90;;;4.40;;
57303;SDS011;43150;50.986;18.208;2023-05-10T05:24:35;5.70;;;4.80;;
57303;SDS011;43150;50.986;18.208;2023-05-10T05:27:02;4.90;;;3.90;;
57303;SDS011;43150;50.986;18.208;2023-05-10T05:29:28;5.50;;;4.00;;
57303;SDS011;43150;50.986;18.208;2023-05-10T05:31:53;5.20;;;4.10;;
57303;SDS011;43150;50.986;18.208;2023-05-10T05:34:20;4.60;;;3.90;;
57303;SDS011;43150;50.986;18.208;2023-05-10T05:36:47;7.80;;;3.60;;
57303;SDS011;43150;50.986;18.208;2023-05-10T05:39:13;6.50;;;3.70;;
57303;SDS011;43150;50.986;18.208;2023-05-10T05:41:39;5.40;;;3.50;;
57303;SDS011;43150;50.986;18.208;2023-05-10T05:44:04;4.30;;;3.60;;
57303;SDS011;43150;50.986;18.208;2023-05-10T05:46:30;4.80;;;3.60;;
57303;SDS011;43150;50.986;18.208;2023-05-10T05:49:01;4.10;;;3.20;;
57303;SDS011;43150;50.986;18.208;2023-05-10T05:51:27;4.20;;;3.20;;
57303;SDS011;43150;50.986;18.208;2023-05-10T05:53:52;5.70;;;3.20;;
57303;SDS011;43150;50.986;18.208;2023-05-10T05:56:18;4.50;;;3.40;;
57303;SDS011;43150;50.986;18.208;2023-05-10T05:58:51;5.70;;;3.40;;
57303;SDS011;43150;50.986;18.208;2023-05-10T06:01:17;4.40;;;3.10;;
57303;SDS011;43150;50.986;18.208;2023-05-10T06:03:42;4.60;;;3.10;;
57303;SDS011;43150;50.986;18.208;2023-05-10T06:06:08;3.90;;;3.20;;
57303;SDS011;43150;50.986;18.208;2023-05-10T06:08:33;5.40;;;3.50;;
57303;SDS011;43150;50.986;18.208;2023-05-10T06:11:02;6.20;;;3.30;;
57303;SDS011;43150;50.986;18.208;2023-05-10T06:13:29;4.30;;;3.10;;
57303;SDS011;43150;50.986;18.208;2023-05-10T06:15:59;4.80;;;3.70;;
57303;SDS011;43150;50.986;18.208;2023-05-10T06:18:31;5.00;;;3.20;;
57303;SDS011;43150;50.986;18.208;2023-05-10T06:20:56;5.60;;;3.30;;
57303;SDS011;43150;50.986;18.208;2023-05-10T06:23:22;4.70;;;3.40;;
57303;SDS011;43150;50.986;18.208;2023-05-10T06:25:51;5.00;;;3.20;;
57303;SDS011;43150;50.986;18.208;2023-05-10T06:28:16;3.60;;;3.10;;
57303;SDS011;43150;50.986;18.208;2023-05-10T06:30:42;5.20;;;3.40;;
57303;SDS011;43150;50.986;18.208;2023-05-10T06:33:07;4.90;;;2.90;;
57303;SDS011;43150;50.986;18.208;2023-05-10T06:35:33;4.20;;;3.00;;
57303;SDS011;43150;50.986;18.208;2023-05-10T06:37:59;5.40;;;3.00;;
57303;SDS011;43150;50.986;18.208;2023-05-10T06:40:26;5.50;;;2.80;;
57303;SDS011;43150;50.986;18.208;2023-05-10T06:42:52;3.50;;;2.60;;
57303;SDS011;43150;50.986;18.208;2023-05-10T06:45:19;5.50;;;3.00;;
57303;SDS011;43150;50.986;18.208;2023-05-10T06:47:46;4.40;;;2.80;;
57303;SDS011;43150;50.986;18.208;2023-05-10T06:50:12;4.10;;;2.70;;
57303;SDS011;43150;50.986;18.208;2023-05-10T06:52:38;4.30;;;2.50;;
57303;SDS011;43150;50.986;18.208;2023-05-10T06:55:04;4.20;;;2.70;;
57303;SDS011;43150;50.986;18.208;2023-05-10T06:57:30;3.90;;;3.10;;
57303;SDS011;43150;50.986;18.208;2023-05-10T06:59:57;3.40;;;2.70;;
57303;SDS011;43150;50.986;18.208;2023-05-10T07:02:23;5.60;;;3.10;;
57303;SDS011;43150;50.986;18.208;2023-05-10T07:04:48;4.10;;;2.60;;
57303;SDS011;43150;50.986;18.208;2023-05-10T07:07:14;4.70;;;2.70;;
57303;SDS011;43150;50.986;18.208;2023-05-10T07:09:40;3.70;;;2.50;;
57303;SDS011;43150;50.986;18.208;2023-05-10T07:12:06;4.40;;;2.90;;
57303;SDS011;43150;50.986;18.208;2023-05-10T07:14:31;3.70;;;2.40;;
57303;SDS011;43150;50.986;18.208;2023-05-10T07:16:56;4.00;;;2.70;;
57303;SDS011;43150;50.986;18.208;2023-05-10T07:19:22;4.10;;;2.60;;
57303;SDS011;43150;50.986;18.208;2023-05-10T07:21:48;4.10;;;2.60;;
57303;SDS011;43150;50.986;18.208;2023-05-10T07:24:13;7.90;;;6.30;;
57303;SDS011;43150;50.986;18.208;2023-05-10T07:26:39;4.10;;;2.50;;
57303;SDS011;43150;50.986;18.208;2023-05-10T07:29:04;4.60;;;2.80;;
57303;SDS011;43150;50.986;18.208;2023-05-10T07:31:31;3.90;;;2.60;;
57303;SDS011;43150;50.986;18.208;2023-05-10T07:33:59;4.30;;;2.60;;
57303;SDS011;43150;50.986;18.208;2023-05-10T07:36:25;2.90;;;2.50;;
57303;SDS011;43150;50.986;18.208;2023-05-10T07:38:50;6.00;;;2.70;;
57303;SDS011;43150;50.986;18.208;2023-05-10T07:41:16;6.20;;;2.90;;
57303;SDS011;43150;50.986;18.208;2023-05-10T07:43:41;3.30;;;2.80;;
57303;SDS011;43150;50.986;18.208;2023-05-10T07:46:07;3.30;;;2.30;;
57303;SDS011;43150;50.986;18.208;2023-05-10T07:48:32;2.50;;;2.30;;
57303;SDS011;43150;50.986;18.208;2023-05-10T07:50:58;4.30;;;2.50;;
57303;SDS011;43150;50.986;18.208;2023-05-10T07:53:24;4.90;;;2.70;;
57303;SDS011;43150;50.986;18.208;2023-05-10T07:55:51;3.40;;;2.30;;
57303;SDS011;43150;50.986;18.208;2023-05-10T07:58:17;3.90;;;1.90;;
57303;SDS011;43150;50.986;18.208;2023-05-10T08:00:43;5.50;;;2.50;;
57303;SDS011;43150;50.986;18.208;2023-05-10T08:03:08;3.60;;;2.30;;
57303;SDS011;43150;50.986;18.208;2023-05-10T08:05:34;3.20;;;2.30;;
57303;SDS011;43150;50.986;18.208;2023-05-10T08:08:02;3.40;;;2.00;;
57303;SDS011;43150;50.986;18.208;2023-05-10T08:10:27;4.00;;;2.00;;
57303;SDS011;43150;50.986;18.208;2023-05-10T08:12:53;2.40;;;2.20;;
57303;SDS011;43150;50.986;18.208;2023-05-10T08:15:18;2.30;;;1.80;;
57303;SDS011;43150;50.986;18.208;2023-05-10T08:17:44;2.90;;;2.20;;
57303;SDS011;43150;50.986;18.208;2023-05-10T08:20:09;4.40;;;1.90;;
57303;SDS011;43150;50.986;18.208;2023-05-10T08:22:35;3.90;;;2.30;;
57303;SDS011;43150;50.986;18.208;2023-05-10T08:25:05;3.30;;;2.50;;
57303;SDS011;43150;50.986;18.208;2023-05-10T08:27:31;2.90;;;2.00;;
57303;SDS011;43150;50.986;18.208;2023-05-10T08:29:56;3.70;;;2.50;;
57303;SDS011;43150;50.986;18.208;2023-05-10T08:32:23;5.20;;;2.20;;
57303;SDS011;43150;50.986;18.208;2023-05-10T08:34:48;4.10;;;1.80;;
57303;SDS011;43150;50.986;18.208;2023-05-10T08:37:14;3.00;;;1.90;;
57303;SDS011;43150;50.986;18.208;2023-05-10T08:39:39;3.40;;;1.80;;
57303;SDS011;43150;50.986;18.208;2023-05-10T08:42:05;3.60;;;2.00;;
57303;SDS011;43150;50.986;18.208;2023-05-10T08:44:32;2.20;;;1.90;;
57303;SDS011;43150;50.986;18.208;2023-05-10T08:46:59;2.30;;;1.50;;
57303;SDS011;43150;50.986;18.208;2023-05-10T08:49:25;2.80;;;1.60;;
57303;SDS011;43150;50.986;18.208;2023-05-10T08:51:54;1.80;;;1.60;;
57303;SDS011;43150;50.986;18.208;2023-05-10T08:54:21;2.90;;;1.90;;
57303;SDS011;43150;50.986;18.208;2023-05-10T08:56:46;5.50;;;2.20;;
57303;SDS011;43150;50.986;18.208;2023-05-10T08:59:12;3.60;;;1.90;;
57303;SDS011;43150;50.986;18.208;2023-05-10T09:01:39;3.10;;;1.70;;
57303;SDS011;43150;50.986;18.208;2023-05-10T09:04:05;2.30;;;1.80;;
57303;SDS011;43150;50.986;18.208;2023-05-10T09:06:31;2.60;;;2.00;;
57303;SDS011;43150;50.986;18.208;2023-05-10T09:08:57;3.00;;;2.00;;
57303;SDS011;43150;50.986;18.208;2023-05-10T09:11:23;3.00;;;1.90;;
57303;SDS011;43150;50.986;18.208;2023-05-10T09:13:50;2.60;;;1.70;;
57303;SDS011;43150;50.986;18.208;2023-05-10T09:16:16;3.80;;;2.40;;
57303;SDS011;43150;50.986;18.208;2023-05-10T09:18:45;4.40;;;2.10;;
57303;SDS011;43150;50.986;18.208;2023-05-10T09:21:11;3.00;;;1.70;;
57303;SDS011;43150;50.986;18.208;2023-05-10T09:23:37;5.80;;;2.00;;
57303;SDS011;43150;50.986;18.208;2023-05-10T09:26:03;3.70;;;2.20;;
57303;SDS011;43150;50.986;18.208;2023-05-10T09:28:33;3.00;;;2.10;;
57303;SDS011;43150;50.986;18.208;2023-05-10T09:30:59;11.60;;;2.20;;
57303;SDS011;43150;50.986;18.208;2023-05-10T09:33:24;5.10;;;2.10;;
57303;SDS011;43150;50.986;18.208;2023-05-10T09:35:51;4.20;;;2.20;;
57303;SDS011;43150;50.986;18.208;2023-05-10T09:38:17;3.00;;;1.90;;
57303;SDS011;43150;50.986;18.208;2023-05-10T09:40:42;3.00;;;1.90;;
57303;SDS011;43150;50.986;18.208;2023-05-10T09:43:19;4.40;;;2.00;;
57303;SDS011;43150;50.986;18.208;2023-05-10T09:45:45;4.40;;;2.00;;
57303;SDS011;43150;50.986;18.208;2023-05-10T09:48:13;4.00;;;2.20;;
57303;SDS011;43150;50.986;18.208;2023-05-10T09:50:38;4.60;;;2.20;;
57303;SDS011;43150;50.986;18.208;2023-05-10T09:53:04;4.00;;;2.40;;
57303;SDS011;43150;50.986;18.208;2023-05-10T09:55:40;2.40;;;2.20;;
57303;SDS011;43150;50.986;18.208;2023-05-10T09:58:06;3.90;;;2.10;;
57303;SDS011;43150;50.986;18.208;2023-05-10T10:00:39;3.50;;;2.30;;
57303;SDS011;43150;50.986;18.208;2023-05-10T10:03:05;2.90;;;2.00;;
57303;SDS011;43150;50.986;18.208;2023-05-10T10:05:31;2.50;;;2.30;;
57303;SDS011;43150;50.986;18.208;2023-05-10T10:07:58;4.10;;;2.50;;
57303;SDS011;43150;50.986;18.208;2023-05-10T10:10:27;3.00;;;2.30;;
57303;SDS011;43150;50.986;18.208;2023-05-10T10:12:53;3.10;;;2.10;;
57303;SDS011;43150;50.986;18.208;2023-05-10T10:15:22;4.10;;;2.30;;
57303;SDS011;43150;50.986;18.208;2023-05-10T10:17:48;4.10;;;2.10;;
57303;SDS011;43150;50.986;18.208;2023-05-10T10:20:15;2.50;;;1.90;;
57303;SDS011;43150;50.986;18.208;2023-05-10T10:22:43;2.20;;;1.80;;
57303;SDS011;43150;50.986;18.208;2023-05-10T10:25:11;3.00;;;1.80;;
57303;SDS011;43150;50.986;18.208;2023-05-10T10:27:49;2.60;;;2.00;;
57303;SDS011;43150;50.986;18.208;2023-05-10T10:35:36;3.50;;;2.00;;
57303;SDS011;43150;50.986;18.208;2023-05-10T10:38:02;5.60;;;2.10;;
57303;SDS011;43150;50.986;18.208;2023-05-10T10:40:29;4.60;;;1.90;;
57303;SDS011;43150;50.986;18.208;2023-05-10T10:42:55;3.80;;;2.10;;
57303;SDS011;43150;50.986;18.208;2023-05-10T10:45:21;3.00;;;1.90;;
57303;SDS011;43150;50.986;18.208;2023-05-10T10:47:47;5.70;;;2.10;;
57303;SDS011;43150;50.986;18.208;2023-05-10T10:50:13;2.80;;;1.80;;
57303;SDS011;43150;50.986;18.208;2023-05-10T10:52:39;3.40;;;1.80;;
57303;SDS011;43150;50.986;18.208;2023-05-10T10:55:10;4.80;;;2.00;;
57303;SDS011;43150;50.986;18.208;2023-05-10T11:00:18;5.50;;;1.90;;
57303;SDS011;43150;50.986;18.208;2023-05-10T11:02:46;2.40;;;1.80;;
57303;SDS011;43150;50.986;18.208;2023-05-10T11:07:54;3.40;;;1.70;;
57303;SDS011;43150;50.986;18.208;2023-05-10T11:10:24;6.60;;;2.00;;
57303;SDS011;43150;50.986;18.208;2023-05-10T11:12:58;3.20;;;2.70;;
57303;SDS011;43150;50.986;18.208;2023-05-10T11:15:30;3.80;;;2.10;;
57303;SDS011;43150;50.986;18.208;2023-05-10T11:17:56;5.20;;;1.90;;
57303;SDS011;43150;50.986;18.208;2023-05-10T11:20:21;4.20;;;1.80;;
57303;SDS011;43150;50.986;18.208;2023-05-10T11:22:50;4.00;;;2.00;;
57303;SDS011;43150;50.986;18.208;2023-05-10T11:25:17;3.00;;;2.10;;
57303;SDS011;43150;50.986;18.208;2023-05-10T11:27:42;3.10;;;1.80;;
57303;SDS011;43150;50.986;18.208;2023-05-10T11:30:11;2.80;;;2.30;;
57303;SDS011;43150;50.986;18.208;2023-05-10T11:32:38;4.10;;;1.80;;
57303;SDS011;43150;50.986;18.208;2023-05-10T11:35:07;3.30;;;1.90;;
57303;SDS011;43150;50.986;18.208;2023-05-10T11:37:33;3.50;;;2.00;;
57303;SDS011;43150;50.986;18.208;2023-05-10T11:39:59;2.80;;;2.00;;
57303;SDS011;43150;50.986;18.208;2023-05-10T11:42:25;4.00;;;2.00;;
57303;SDS011;43150;50.986;18.208;2023-05-10T11:44:50;4.20;;;2.00;;
57303;SDS011;43150;50.986;18.208;2023-05-10T11:47:16;2.90;;;1.80;;
57303;SDS011;43150;50.986;18.208;2023-05-10T11:49:44;2.30;;;1.80;;
57303;SDS011;43150;50.986;18.208;2023-05-10T11:52:10;5.80;;;2.20;;
57303;SDS011;43150;50.986;18.208;2023-05-10T11:54:45;2.60;;;1.90;;
57303;SDS011;43150;50.986;18.208;2023-05-10T11:57:18;4.40;;;2.60;;
57303;SDS011;43150;50.986;18.208;2023-05-10T11:59:43;2.50;;;1.90;;
57303;SDS011;43150;50.986;18.208;2023-05-10T12:02:09;3.30;;;1.80;;
57303;SDS011;43150;50.986;18.208;2023-05-10T12:04:35;3.50;;;2.10;;
57303;SDS011;43150;50.986;18.208;2023-05-10T12:07:01;2.50;;;1.80;;
57303;SDS011;43150;50.986;18.208;2023-05-10T12:09:26;4.30;;;1.90;;
57303;SDS011;43150;50.986;18.208;2023-05-10T12:11:55;3.30;;;1.90;;
57303;SDS011;43150;50.986;18.208;2023-05-10T12:14:21;3.80;;;1.80;;
57303;SDS011;43150;50.986;18.208;2023-05-10T12:16:47;3.20;;;1.90;;
57303;SDS011;43150;50.986;18.208;2023-05-10T12:19:13;2.20;;;1.80;;
57303;SDS011;43150;50.986;18.208;2023-05-10T12:21:43;3.50;;;1.90;;
57303;SDS011;43150;50.986;18.208;2023-05-10T12:24:09;2.40;;;2.00;;
57303;SDS011;43150;50.986;18.208;2023-05-10T12:26:36;2.40;;;1.80;;
57303;SDS011;43150;50.986;18.208;2023-05-10T12:31:57;2.90;;;1.80;;
57303;SDS011;43150;50.986;18.208;2023-05-10T12:34:33;3.10;;;2.10;;
57303;SDS011;43150;50.986;18.208;2023-05-10T12:36:59;2.40;;;2.00;;
57303;SDS011;43150;50.986;18.208;2023-05-10T12:39:25;4.30;;;1.70;;
57303;SDS011;43150;50.986;18.208;2023-05-10T12:41:51;3.80;;;2.30;;
57303;SDS011;43150;50.986;18.208;2023-05-10T12:44:17;3.00;;;1.90;;
57303;SDS011;43150;50.986;18.208;2023-05-10T12:46:43;2.00;;;1.60;;
57303;SDS011;43150;50.986;18.208;2023-05-10T12:49:08;2.90;;;1.70;;
57303;SDS011;43150;50.986;18.208;2023-05-10T12:51:34;2.50;;;1.60;;
57303;SDS011;43150;50.986;18.208;2023-05-10T12:54:00;2.70;;;1.90;;
57303;SDS011;43150;50.986;18.208;2023-05-10T12:56:25;1.90;;;1.50;;
57303;SDS011;43150;50.986;18.208;2023-05-10T12:58:51;3.60;;;1.80;;
57303;SDS011;43150;50.986;18.208;2023-05-10T13:01:17;3.50;;;1.70;;
57303;SDS011;43150;50.986;18.208;2023-05-10T13:03:42;3.30;;;1.90;;
57303;SDS011;43150;50.986;18.208;2023-05-10T13:06:11;3.00;;;1.80;;
57303;SDS011;43150;50.986;18.208;2023-05-10T13:08:38;4.60;;;1.80;;
57303;SDS011;43150;50.986;18.208;2023-05-10T13:11:05;2.10;;;1.90;;
57303;SDS011;43150;50.986;18.208;2023-05-10T13:13:31;4.70;;;1.70;;
57303;SDS011;43150;50.986;18.208;2023-05-10T13:15:56;2.40;;;1.90;;
57303;SDS011;43150;50.986;18.208;2023-05-10T13:18:22;3.20;;;1.80;;
57303;SDS011;43150;50.986;18.208;2023-05-10T13:20:49;3.70;;;1.70;;
57303;SDS011;43150;50.986;18.208;2023-05-10T13:23:15;3.10;;;2.10;;
57303;SDS011;43150;50.986;18.208;2023-05-10T13:25:40;2.90;;;1.90;;
57303;SDS011;43150;50.986;18.208;2023-05-10T13:28:06;3.90;;;2.00;;
57303;SDS011;43150;50.986;18.208;2023-05-10T13:30:32;4.70;;;2.10;;
57303;SDS011;43150;50.986;18.208;2023-05-10T13:32:57;4.80;;;2.30;;
57303;SDS011;43150;50.986;18.208;2023-05-10T13:35:23;5.80;;;2.60;;
57303;SDS011;43150;50.986;18.208;2023-05-10T13:37:48;1.90;;;1.70;;
57303;SDS011;43150;50.986;18.208;2023-05-10T13:40:14;3.10;;;1.80;;
57303;SDS011;43150;50.986;18.208;2023-05-10T13:42:41;4.00;;;2.00;;
57303;SDS011;43150;50.986;18.208;2023-05-10T13:45:06;2.10;;;1.80;;
57303;SDS011;43150;50.986;18.208;2023-05-10T13:47:32;3.00;;;2.00;;
57303;SDS011;43150;50.986;18.208;2023-05-10T13:49:57;3.80;;;1.90;;
57303;SDS011;43150;50.986;18.208;2023-05-10T13:52:23;3.60;;;2.00;;
57303;SDS011;43150;50.986;18.208;2023-05-10T13:54:49;2.70;;;1.70;;
57303;SDS011;43150;50.986;18.208;2023-05-10T13:57:14;2.60;;;1.80;;
57303;SDS011;43150;50.986;18.208;2023-05-10T13:59:41;3.10;;;2.20;;
57303;SDS011;43150;50.986;18.208;2023-05-10T14:02:07;3.00;;;2.20;;
57303;SDS011;43150;50.986;18.208;2023-05-10T14:04:32;3.50;;;2.20;;
57303;SDS011;43150;50.986;18.208;2023-05-10T14:07:00;3.80;;;2.00;;
57303;SDS011;43150;50.986;18.208;2023-05-10T14:09:26;3.60;;;1.90;;
57303;SDS011;43150;50.986;18.208;2023-05-10T14:11:51;5.90;;;2.30;;
57303;SDS011;43150;50.986;18.208;2023-05-10T14:14:17;2.80;;;2.10;;
57303;SDS011;43150;50.986;18.208;2023-05-10T14:16:43;4.30;;;1.90;;
57303;SDS011;43150;50.986;18.208;2023-05-10T14:19:09;4.80;;;2.10;;
57303;SDS011;43150;50.986;18.208;2023-05-10T14:21:35;3.60;;;2.20;;
57303;SDS011;43150;50.986;18.208;2023-05-10T14:24:03;4.80;;;1.90;;
57303;SDS011;43150;50.986;18.208;2023-05-10T14:26:30;5.40;;;2.40;;
57303;SDS011;43150;50.986;18.208;2023-05-10T14:28:58;12.00;;;2.70;;
57303;SDS011;43150;50.986;18.208;2023-05-10T14:31:24;5.60;;;2.10;;
57303;SDS011;43150;50.986;18.208;2023-05-10T14:33:50;2.60;;;2.00;;
57303;SDS011;43150;50.986;18.208;2023-05-10T14:36:17;3.50;;;1.90;;
57303;SDS011;43150;50.986;18.208;2023-05-10T14:38:43;4.30;;;2.20;;
57303;SDS011;43150;50.986;18.208;2023-05-10T14:41:08;2.40;;;1.70;;
57303;SDS011;43150;50.986;18.208;2023-05-10T14:43:34;6.80;;;2.70;;
57303;SDS011;43150;50.986;18.208;2023-05-10T14:46:00;2.40;;;1.80;;
57303;SDS011;43150;50.986;18.208;2023-05-10T14:48:26;6.20;;;2.20;;
57303;SDS011;43150;50.986;18.208;2023-05-10T14:50:52;5.50;;;2.10;;
57303;SDS011;43150;50.986;18.208;2023-05-10T14:53:18;3.00;;;2.00;;
57303;SDS011;43150;50.986;18.208;2023-05-10T14:55:43;5.00;;;2.10;;
57303;SDS011;43150;50.986;18.208;2023-05-10T14:58:09;4.20;;;2.20;;
57303;SDS011;43150;50.986;18.208;2023-05-10T15:00:35;4.70;;;2.00;;
57303;SDS011;43150;50.986;18.208;2023-05-10T15:03:01;3.20;;;2.00;;